Time;durP1;ratioP1;P1;durP2;ratioP2;P2;SDS_P1;SDS_P2;PMS_P1;PMS_P2;Temp;Humidity;BMP_temperature;BMP_pressure;BME280_temperature;BME280_humidity;BME280_pressure;Samples;Min_cycle;Max_cycle;Signal;HPM_P1;HPM_P2
2022/03/05 00:00:28;;;;;;;10.75;7.82;;;2.40;99.90;;;;;;5033836;28;20496;-85
2022/03/05 00:02:54;;;;;;;14.07;8.55;;;0.60;99.90;;;;;;5034271;28;20408;-85
2022/03/05 00:05:20;;;;;;;13.02;8.63;;;0.60;99.90;;;;;;5017692;28;20040;-85
2022/03/05 00:07:46;;;;;;;16.50;8.80;;;0.60;99.90;;;;;;5033377;28;20039;-85
2022/03/05 00:10:12;;;;;;;17.98;11.55;;;1.40;99.90;;;;;;5000439;28;20041;-85
2022/03/05 00:12:38;;;;;;;18.58;11.75;;;0.60;99.90;;;;;;5050099;28;20528;-85
2022/03/05 00:15:04;;;;;;;22.25;13.85;;;2.20;99.90;;;;;;5033917;28;20128;-85
2022/03/05 00:17:30;;;;;;;16.88;10.73;;;0.60;99.90;;;;;;5050025;28;20083;-85
2022/03/05 00:19:55;;;;;;;17.77;11.38;;;0.50;99.90;;;;;;5033478;28;20037;-85
2022/03/05 00:22:21;;;;;;;15.93;9.68;;;0.50;99.90;;;;;;5050213;28;20488;-85
2022/03/05 00:24:47;;;;;;;15.45;10.25;;;0.50;99.90;;;;;;5016743;28;20040;-86
2022/03/05 00:27:13;;;;;;;16.60;9.77;;;0.50;99.90;;;;;;5033862;28;20071;-85
2022/03/05 00:29:40;;;;;;;13.27;8.77;;;2.10;99.90;;;;;;5033236;28;20065;-86
2022/03/05 00:32:06;;;;;;;15.10;9.80;;;0.50;99.90;;;;;;5033581;28;20039;-85
2022/03/05 00:34:32;;;;;;;16.00;9.80;;;0.50;99.90;;;;;;5016450;28;20067;-85
2022/03/05 00:36:57;;;;;;;15.32;9.73;;;2.10;99.90;;;;;;5033694;28;20037;-85
2022/03/05 00:39:23;;;;;;;15.07;8.82;;;1.80;99.90;;;;;;5033584;28;20025;-84
2022/03/05 00:41:49;;;;;;;12.68;8.18;;;2.30;99.90;;;;;;5049506;28;20033;-84
2022/03/05 00:44:15;;;;;;;13.52;7.63;;;0.40;99.90;;;;;;5016850;28;20380;-85
2022/03/05 00:46:41;;;;;;;13.40;7.43;;;0.40;99.90;;;;;;4999669;28;20037;-84
2022/03/05 00:49:07;;;;;;;10.50;7.50;;;1.70;99.90;;;;;;5016780;28;20480;-85
2022/03/05 00:51:33;;;;;;;;;;;0.30;99.90;;;;;;5016949;28;20047;-84
2022/03/05 00:53:59;;;;;;;11.77;7.47;;;1.80;99.90;;;;;;5032760;28;19921;-85
2022/03/05 00:56:25;;;;;;;11.48;6.72;;;1.30;99.90;;;;;;5016483;28;20747;-85
2022/03/05 00:58:50;;;;;;;12.18;7.10;;;0.30;99.90;;;;;;5032578;28;20116;-85
2022/03/05 01:01:16;;;;;;;12.55;7.30;;;0.20;99.90;;;;;;5017254;28;20037;-85
2022/03/05 01:03:43;;;;;;;13.05;7.65;;;0.20;99.90;;;;;;5016362;28;20064;-85
2022/03/05 01:06:08;;;;;;;13.10;7.40;;;0.20;99.90;;;;;;5033244;28;20488;-85
2022/03/05 01:08:34;;;;;;;11.95;7.15;;;0.20;99.90;;;;;;5032353;28;20037;-84
2022/03/05 01:11:01;;;;;;;11.73;7.68;;;0.20;99.90;;;;;;5016461;28;20040;-85
2022/03/05 01:13:26;;;;;;;13.43;7.68;;;0.20;99.90;;;;;;5032842;28;20052;-85
2022/03/05 01:15:52;;;;;;;14.83;7.77;;;0.20;99.90;;;;;;5014815;28;20405;-85
2022/03/05 01:18:18;;;;;;;13.48;8.35;;;0.20;99.90;;;;;;5033104;28;20286;-85
2022/03/05 01:20:44;;;;;;;12.93;7.57;;;1.50;99.90;;;;;;5031742;28;20040;-85
2022/03/05 01:23:09;;;;;;;11.10;7.17;;;0.20;99.90;;;;;;5048699;28;20930;-86
2022/03/05 01:25:36;;;;;;;11.48;7.53;;;0.20;99.90;;;;;;5032325;28;20275;-86
2022/03/05 01:28:02;;;;;;;12.68;7.90;;;0.20;99.90;;;;;;5048979;28;20049;-83
2022/03/05 01:30:28;;;;;;;12.02;7.25;;;0.20;99.90;;;;;;5032465;28;20040;-85
2022/03/05 01:32:54;;;;;;;17.30;8.85;;;0.20;99.90;;;;;;5031763;28;20044;-85
2022/03/05 01:35:20;;;;;;;15.52;9.40;;;1.40;99.90;;;;;;5016120;28;20032;-85
2022/03/05 01:37:46;;;;;;;14.18;8.18;;;0.20;99.90;;;;;;5032351;28;20051;-85
2022/03/05 01:40:12;;;;;;;13.35;7.97;;;0.80;99.90;;;;;;5032469;28;20037;-85
2022/03/05 01:42:38;;;;;;;18.02;9.55;;;0.20;99.90;;;;;;5033896;28;20112;-85
2022/03/05 01:45:04;;;;;;;15.52;8.18;;;0.20;99.90;;;;;;5037086;28;20124;-85
2022/03/05 01:47:30;;;;;;;13.80;8.48;;;0.20;99.90;;;;;;5036250;28;20056;-86
2022/03/05 01:49:55;;;;;;;17.17;8.75;;;0.80;99.90;;;;;;5036163;28;20377;-85
2022/03/05 01:52:21;;;;;;;15.35;9.10;;;0.10;99.90;;;;;;5053314;28;20045;-85
2022/03/05 01:54:47;;;;;;;14.57;9.25;;;1.90;99.90;;;;;;5019766;28;20037;-84
2022/03/05 01:57:13;;;;;;;15.88;9.43;;;0.20;99.90;;;;;;5036261;28;20060;-85
2022/03/05 01:59:39;;;;;;;16.98;9.27;;;0.10;99.90;;;;;;5003481;28;20064;-86
2022/03/05 02:02:05;;;;;;;12.73;9.00;;;0.10;99.90;;;;;;5036172;28;20029;-84
2022/03/05 02:04:30;;;;;;;13.45;8.57;;;0.10;99.90;;;;;;5001399;28;20033;-85
2022/03/05 02:06:56;;;;;;;13.13;8.52;;;1.00;99.90;;;;;;5052571;28;20041;-85
2022/03/05 02:09:22;;;;;;;15.70;9.07;;;0.00;99.90;;;;;;5020224;28;20033;-85
2022/03/05 02:11:48;;;;;;;14.03;8.57;;;0.00;99.90;;;;;;5036044;28;20045;-85
2022/03/05 02:14:18;;;;;;;14.20;8.40;;;2.20;99.90;;;;;;5053035;28;20841;-85
2022/03/05 02:16:45;;;;;;;13.98;8.68;;;0.00;99.90;;;;;;5035688;28;20153;-85
2022/03/05 02:19:10;;;;;;;;;;;0.00;99.90;;;;;;5036684;28;20037;-86
2022/03/05 02:21:36;;;;;;;12.80;7.90;;;0.00;99.90;;;;;;5052437;28;20008;-86
2022/03/05 02:24:03;;;;;;;13.80;7.90;;;0.00;99.90;;;;;;5035524;28;20462;-86
2022/03/05 02:26:28;;;;;;;;;;;0.00;99.90;;;;;;5036380;28;20120;-85
2022/03/05 02:28:55;;;;;;;13.65;7.60;;;0.00;99.90;;;;;;5035300;28;19958;-85
2022/03/05 02:31:21;;;;;;;13.63;7.65;;;-0.10;99.90;;;;;;5052672;28;20051;-85
2022/03/05 02:33:47;;;;;;;14.65;8.18;;;-0.10;99.90;;;;;;5035142;28;20044;-85
2022/03/05 02:36:12;;;;;;;12.90;7.18;;;-0.10;99.90;;;;;;5019379;28;20476;-85
2022/03/05 02:38:38;;;;;;;12.90;7.37;;;-0.10;99.90;;;;;;5035898;28;20131;-85
2022/03/05 02:41:04;;;;;;;15.07;7.75;;;0.10;99.90;;;;;;5035031;28;20283;-86
2022/03/05 02:43:29;;;;;;;13.13;7.70;;;-0.10;99.90;;;;;;5019127;28;20052;-86
2022/03/05 02:45:55;;;;;;;12.93;8.07;;;0.00;99.90;;;;;;5035070;28;20048;-86
2022/03/05 02:48:21;;;;;;;11.25;6.97;;;1.80;99.90;;;;;;5052073;28;20237;-85
2022/03/05 02:50:49;;;;;;;12.13;7.32;;;-0.10;99.90;;;;;;5034941;28;20083;-85
2022/03/05 02:53:15;;;;;;;14.15;7.35;;;-0.10;99.90;;;;;;5031945;28;20045;-85
2022/03/05 02:55:41;;;;;;;11.68;7.20;;;0.00;99.90;;;;;;5018645;28;20064;-85
2022/03/05 02:58:07;;;;;;;11.75;7.20;;;0.00;99.90;;;;;;5035430;28;20075;-85
2022/03/05 03:00:33;;;;;;;12.13;7.32;;;0.00;99.90;;;;;;5051795;28;20037;-85
2022/03/05 03:02:59;;;;;;;10.20;6.90;;;0.00;99.90;;;;;;5034486;28;20488;-85
2022/03/05 03:05:25;;;;;;;11.38;6.80;;;-0.10;99.90;;;;;;5035426;28;20033;-86
2022/03/05 03:07:51;;;;;;;10.95;6.97;;;0.10;99.90;;;;;;5018327;28;20033;-85
2022/03/05 03:10:17;;;;;;;11.00;6.97;;;0.00;99.90;;;;;;5051747;28;20033;-85
2022/03/05 03:12:43;;;;;;;11.90;6.63;;;0.20;99.90;;;;;;5018335;28;20494;-84
2022/03/05 03:15:12;;;;;;;11.07;6.85;;;0.10;99.90;;;;;;5051255;28;20045;-84
2022/03/05 03:17:45;;;;;;;9.88;6.55;;;0.80;99.90;;;;;;5051364;28;20033;-84
2022/03/05 03:20:13;;;;;;;10.85;6.90;;;0.00;99.90;;;;;;5049448;28;20041;-84
2022/03/05 03:22:39;;;;;;;10.38;7.00;;;1.80;99.90;;;;;;5034718;28;20166;-85
2022/03/05 03:25:06;;;;;;;12.40;7.35;;;0.00;99.90;;;;;;5017894;28;20040;-84
2022/03/05 03:27:31;;;;;;;11.35;7.25;;;0.00;99.90;;;;;;5034961;28;20397;-84
2022/03/05 03:29:57;;;;;;;12.27;7.05;;;0.00;99.90;;;;;;5017963;28;20037;-85
2022/03/05 03:32:23;;;;;;;11.83;7.27;;;-0.10;99.90;;;;;;5051662;28;20040;-85
2022/03/05 03:34:49;;;;;;;10.75;6.60;;;-0.10;99.90;;;;;;5033992;28;20374;-85
2022/03/05 03:37:15;;;;;;;11.25;6.82;;;0.90;99.90;;;;;;5018181;28;20074;-84
2022/03/05 03:39:40;;;;;;;13.23;6.90;;;-0.10;99.90;;;;;;5034436;28;20037;-84
2022/03/05 03:42:06;;;;;;;11.35;6.75;;;-0.20;99.90;;;;;;5033985;28;20043;-84
2022/03/05 03:44:32;;;;;;;10.65;7.15;;;-0.20;99.90;;;;;;5017956;28;20044;-85
2022/03/05 03:46:58;;;;;;;12.80;7.10;;;-0.20;99.90;;;;;;5000823;28;20071;-84
2022/03/05 03:49:24;;;;;;;11.52;6.75;;;-0.30;99.90;;;;;;5050986;28;20059;-84
2022/03/05 03:51:50;;;;;;;11.70;7.57;;;-0.20;99.90;;;;;;5047737;28;20094;-85
2022/03/05 03:54:16;;;;;;;13.98;7.70;;;0.20;99.90;;;;;;5050819;28;20464;-85
2022/03/05 03:56:42;;;;;;;13.65;8.13;;;-0.40;99.90;;;;;;5034208;28;20051;-85
2022/03/05 03:59:08;;;;;;;12.30;7.47;;;-0.40;99.90;;;;;;5033690;28;20059;-84
2022/03/05 04:01:35;;;;;;;13.05;7.68;;;1.40;99.90;;;;;;5017819;28;20508;-85
2022/03/05 04:04:01;;;;;;;13.07;8.18;;;-0.50;99.90;;;;;;5033649;28;20072;-85
2022/03/05 04:08:41;;;;;;;12.15;7.53;;;-0.50;99.90;;;;;;5017145;28;20096;-85
2022/03/05 04:09:12;;;;;;;12.40;7.53;;;-0.60;99.90;;;;;;5021285;28;20076;-84
2022/03/05 04:11:38;;;;;;;13.30;7.88;;;-0.60;99.90;;;;;;5015021;28;20459;-84
2022/03/05 04:14:04;;;;;;;14.67;8.80;;;-0.50;99.90;;;;;;5033044;28;20041;-84
2022/03/05 04:16:29;;;;;;;14.43;8.40;;;-0.10;99.90;;;;;;5033906;28;20775;-84
2022/03/05 04:18:55;;;;;;;14.65;8.35;;;-0.70;99.90;;;;;;5033299;28;20037;-85
2022/03/05 04:21:21;;;;;;;13.07;7.63;;;0.70;99.90;;;;;;5016981;28;20059;-85
2022/03/05 04:23:46;;;;;;;13.90;8.18;;;-0.80;99.90;;;;;;5033861;28;20037;-85
2022/03/05 04:26:12;;;;;;;13.07;7.57;;;-0.80;99.90;;;;;;5017060;28;20045;-85
2022/03/05 04:28:38;;;;;;;12.15;8.18;;;-2.00;99.90;;;;;;5033750;28;20043;-85
2022/03/05 04:31:04;;;;;;;13.70;8.38;;;-0.80;99.90;;;;;;5033151;28;20130;-85
2022/03/05 04:33:30;;;;;;;;;;;-0.90;99.90;;;;;;5017433;28;20098;-85
2022/03/05 04:35:56;;;;;;;12.38;7.85;;;1.10;99.90;;;;;;5050040;28;20315;-85
2022/03/05 04:38:21;;;;;;;12.10;7.63;;;-0.90;99.90;;;;;;5015145;28;20095;-85
2022/03/05 04:40:47;;;;;;;12.18;7.80;;;0.30;99.90;;;;;;4999300;28;20095;-86
2022/03/05 04:43:13;;;;;;;15.75;8.43;;;-0.90;99.90;;;;;;5016614;28;20037;-85
2022/03/05 04:45:40;;;;;;;13.95;8.32;;;1.00;99.90;;;;;;5033431;28;20079;-85
2022/03/05 04:48:06;;;;;;;14.98;8.60;;;-0.90;99.90;;;;;;4998005;28;20500;-85
2022/03/05 04:50:32;;;;;;;12.60;8.07;;;-1.00;99.90;;;;;;5033541;28;20508;-85
2022/03/05 04:52:58;;;;;;;14.18;8.20;;;-1.00;99.90;;;;;;5016623;28;20094;-85
2022/03/05 04:55:24;;;;;;;13.90;8.20;;;-1.00;99.90;;;;;;5033489;28;20120;-85
2022/03/05 04:57:50;;;;;;;14.32;8.10;;;-1.00;99.90;;;;;;5014257;28;20125;-85
2022/03/05 05:00:15;;;;;;;12.25;8.48;;;-1.10;99.90;;;;;;5032814;28;20064;-85
2022/03/05 05:02:42;;;;;;;13.68;7.90;;;-1.00;99.90;;;;;;5033123;28;20455;-85
2022/03/05 05:05:08;;;;;;;13.18;8.20;;;-0.80;99.90;;;;;;5016226;28;20041;-85
2022/03/05 05:07:34;;;;;;;15.90;8.40;;;-1.10;99.90;;;;;;5032828;28;20076;-85
2022/03/05 05:09:59;;;;;;;14.45;7.65;;;-0.50;99.90;;;;;;5016141;28;20507;-85
2022/03/05 05:12:25;;;;;;;12.48;7.80;;;-1.10;99.90;;;;;;5031798;28;20037;-85
2022/03/05 05:14:51;;;;;;;11.95;7.57;;;-1.20;99.90;;;;;;5013932;28;20346;-85
2022/03/05 05:17:16;;;;;;;11.07;7.53;;;-1.20;99.90;;;;;;4997295;28;20065;-85
2022/03/05 05:19:42;;;;;;;15.52;7.45;;;-1.20;99.90;;;;;;5015431;28;20067;-85
2022/03/05 05:22:08;;;;;;;14.43;7.63;;;-0.90;99.90;;;;;;5031486;28;20033;-84
2022/03/05 05:24:36;;;;;;;12.20;7.45;;;-0.70;99.90;;;;;;5014073;28;20044;-85
2022/03/05 05:27:03;;;;;;;11.73;7.22;;;0.40;99.90;;;;;;5031214;28;20052;-84
2022/03/05 05:29:28;;;;;;;14.65;7.45;;;-1.20;99.90;;;;;;5048386;28;20040;-84
2022/03/05 05:31:56;;;;;;;12.80;7.70;;;-1.20;99.90;;;;;;4997036;28;20053;-84
2022/03/05 05:34:22;;;;;;;12.80;8.10;;;-1.20;99.90;;;;;;5032503;28;20124;-84
2022/03/05 05:36:51;;;;;;;11.77;7.47;;;-1.20;99.90;;;;;;5049262;28;20037;-85
2022/03/05 05:39:17;;;;;;;11.70;7.32;;;-1.00;99.90;;;;;;5032401;28;20068;-84
2022/03/05 05:41:43;;;;;;;11.45;8.23;;;-1.30;99.90;;;;;;5015890;28;20441;-84
2022/03/05 05:44:10;;;;;;;12.98;7.65;;;-1.30;99.90;;;;;;5048706;28;20043;-84
2022/03/05 05:46:37;;;;;;;13.82;7.60;;;-1.30;99.90;;;;;;5032143;28;20152;-84
2022/03/05 05:49:03;;;;;;;13.88;7.45;;;-1.30;99.90;;;;;;5015778;28;20041;-84
2022/03/05 05:51:29;;;;;;;15.90;7.50;;;-1.30;99.90;;;;;;5016213;28;20032;-84
2022/03/05 05:53:56;;;;;;;12.15;7.45;;;0.90;99.90;;;;;;5032201;28;20037;-84
2022/03/05 05:56:23;;;;;;;13.23;7.40;;;-1.30;99.90;;;;;;5048912;28;20068;-84
2022/03/05 05:58:49;;;;;;;13.93;8.05;;;-1.30;99.90;;;;;;5015799;28;20035;-84
2022/03/05 06:01:15;;;;;;;;;;;-0.80;99.90;;;;;;5016153;28;20033;-85
2022/03/05 06:03:42;;;;;;;13.93;7.65;;;-1.40;99.90;;;;;;5032607;28;20280;-84
2022/03/05 06:06:07;;;;;;;;;;;-0.70;99.90;;;;;;5030547;28;20049;-85
2022/03/05 06:08:33;;;;;;;11.73;7.07;;;-0.60;99.90;;;;;;5032355;28;19917;-84
2022/03/05 06:10:59;;;;;;;14.35;8.35;;;0.70;99.90;;;;;;5031943;28;20097;-84
2022/03/05 06:13:25;;;;;;;;;;;-0.50;99.90;;;;;;5032676;28;20037;-84
2022/03/05 06:15:51;;;;;;;13.93;7.35;;;0.10;99.90;;;;;;5031995;28;20382;-84
2022/03/05 06:18:17;;;;;;;14.32;7.93;;;-1.40;99.90;;;;;;5015537;28;20033;-84
2022/03/05 06:20:43;;;;;;;13.27;7.68;;;-1.40;99.90;;;;;;5032565;28;20123;-85
2022/03/05 06:23:09;;;;;;;12.88;7.40;;;-1.40;99.90;;;;;;5031820;28;20029;-85
2022/03/05 06:25:35;;;;;;;13.77;8.05;;;-1.40;99.90;;;;;;5016197;28;20531;-85
2022/03/05 06:28:01;;;;;;;13.25;8.27;;;-1.40;99.90;;;;;;5032469;28;20044;-85
2022/03/05 06:30:27;;;;;;;10.90;7.45;;;-1.40;99.90;;;;;;5019662;28;20029;-85
2022/03/05 06:32:52;;;;;;;14.27;7.22;;;-1.40;99.90;;;;;;5035620;28;20041;-85
2022/03/05 06:35:18;;;;;;;12.68;7.70;;;-1.20;99.90;;;;;;5018691;28;20045;-85
2022/03/05 06:37:45;;;;;;;15.40;8.30;;;-1.40;99.90;;;;;;5035681;28;20033;-85
2022/03/05 06:40:11;;;;;;;13.45;7.88;;;-1.30;99.90;;;;;;5035398;28;20037;-85
2022/03/05 06:42:41;;;;;;;11.52;7.57;;;-1.30;99.90;;;;;;5035582;28;20181;-85
2022/03/05 06:45:08;;;;;;;11.15;7.63;;;-1.30;99.90;;;;;;5018868;28;20455;-85
2022/03/05 06:47:34;;;;;;;11.07;7.50;;;-1.20;99.90;;;;;;5001921;28;20077;-85
2022/03/05 06:50:00;;;;;;;13.65;7.75;;;-1.10;99.90;;;;;;5033326;28;20504;-84
2022/03/05 06:52:26;;;;;;;13.43;7.80;;;-1.10;99.90;;;;;;5034827;28;20102;-84
2022/03/05 06:54:52;;;;;;;12.05;7.80;;;-0.90;99.90;;;;;;5035161;28;20044;-85
2022/03/05 06:57:17;;;;;;;13.25;7.72;;;-0.90;99.90;;;;;;5018420;28;20040;-85
2022/03/05 06:59:43;;;;;;;14.07;8.70;;;1.10;99.90;;;;;;5051817;28;20527;-85
2022/03/05 07:02:09;;;;;;;12.07;7.57;;;-0.70;99.90;;;;;;5017984;28;20500;-85
2022/03/05 07:04:34;;;;;;;14.17;8.20;;;0.70;99.90;;;;;;5035125;28;20062;-85
2022/03/05 07:07:00;;;;;;;13.85;7.80;;;-0.50;99.90;;;;;;5002351;28;20293;-84
2022/03/05 07:09:26;;;;;;;14.15;7.40;;;-0.40;99.90;;;;;;5034620;28;20144;-84
2022/03/05 07:11:52;;;;;;;13.50;7.93;;;-0.20;99.90;;;;;;5002225;28;20073;-84
2022/03/05 07:14:18;;;;;;;13.35;8.00;;;-0.10;99.90;;;;;;5017937;28;20118;-84
2022/03/05 07:16:43;;;;;;;13.77;7.88;;;0.00;99.90;;;;;;5002361;28;20131;-85
2022/03/05 07:19:09;;;;;;;12.63;6.95;;;0.10;99.90;;;;;;5051052;28;20061;-83
2022/03/05 07:21:35;;;;;;;11.00;7.10;;;1.80;99.90;;;;;;5035128;28;20108;-84
2022/03/05 07:24:00;;;;;;;11.15;7.28;;;1.70;99.90;;;;;;5016588;28;20041;-86
2022/03/05 07:26:26;;;;;;;12.25;7.43;;;0.50;99.90;;;;;;5018205;28;20041;-84
2022/03/05 07:28:52;;;;;;;11.98;7.22;;;0.60;99.90;;;;;;5051112;28;20052;-84
2022/03/05 07:31:18;;;;;;;11.57;7.55;;;0.90;99.90;;;;;;5034397;28;20043;-83
2022/03/05 07:33:43;;;;;;;11.75;7.50;;;2.40;99.90;;;;;;5034479;28;20090;-83
2022/03/05 07:36:09;;;;;;;11.77;7.68;;;1.00;99.90;;;;;;5017434;28;20039;-84
2022/03/05 07:38:35;;;;;;;14.75;7.35;;;2.70;99.90;;;;;;5051432;28;20391;-86
2022/03/05 07:41:01;;;;;;;11.93;7.50;;;1.30;99.90;;;;;;5050615;28;20072;-88
2022/03/05 07:43:27;;;;;;;10.90;7.25;;;1.30;99.90;;;;;;5034533;28;20044;-84
2022/03/05 07:45:53;;;;;;;13.55;7.45;;;1.90;99.90;;;;;;5034504;28;20048;-88
2022/03/05 07:48:20;;;;;;;12.80;7.45;;;1.70;99.90;;;;;;5033842;28;20501;-86
2022/03/05 07:50:48;;;;;;;11.73;7.18;;;2.40;99.90;;;;;;5034243;28;20048;-85
2022/03/05 07:53:14;;;;;;;13.85;7.55;;;3.10;99.90;;;;;;5050729;28;20045;-88
2022/03/05 07:55:40;;;;;;;13.35;7.38;;;2.50;99.90;;;;;;5034292;28;20033;-86
2022/03/05 07:58:06;;;;;;;12.07;7.95;;;2.10;99.90;;;;;;5051161;28;20386;-87
2022/03/05 08:00:32;;;;;;;12.02;7.47;;;3.00;99.90;;;;;;5017370;28;20037;-87
2022/03/05 08:02:58;;;;;;;12.68;7.40;;;2.40;99.90;;;;;;5018394;28;20426;-86
2022/03/05 08:05:24;;;;;;;14.75;7.13;;;2.70;99.90;;;;;;5050658;28;20075;-87
2022/03/05 08:07:49;;;;;;;11.50;6.75;;;3.50;99.90;;;;;;5034221;28;20033;-88
2022/03/05 08:10:16;;;;;;;10.93;6.97;;;5.10;99.90;;;;;;5033633;28;20033;-87
2022/03/05 08:12:42;;;;;;;10.93;6.78;;;5.50;99.90;;;;;;5034426;28;20037;-86
2022/03/05 08:15:08;;;;;;;12.43;7.10;;;5.00;99.90;;;;;;5016454;28;20040;-85
2022/03/05 08:17:34;;;;;;;11.82;7.28;;;5.30;99.90;;;;;;5034239;28;20121;-85
2022/03/05 08:20:00;;;;;;;14.45;7.07;;;5.50;99.90;;;;;;5017646;28;20123;-90
2022/03/05 08:22:26;;;;;;;12.07;7.20;;;5.70;99.90;;;;;;5032053;28;20079;-90
2022/03/05 08:24:52;;;;;;;10.43;7.32;;;5.50;99.90;;;;;;5017877;28;20496;-91
2022/03/05 08:27:18;;;;;;;12.48;6.68;;;6.10;99.90;;;;;;5033906;28;20043;-85
2022/03/05 08:29:44;;;;;;;12.18;7.13;;;6.00;99.90;;;;;;5016257;28;20045;-86
2022/03/05 08:32:10;;;;;;;12.70;7.03;;;6.80;99.90;;;;;;5017511;28;20055;-85
2022/03/05 08:34:36;;;;;;;11.07;7.22;;;6.80;99.90;;;;;;5033603;28;20051;-89
2022/03/05 08:37:02;;;;;;;12.05;7.30;;;6.60;99.90;;;;;;5034404;28;20498;-90
2022/03/05 08:39:28;;;;;;;11.63;7.22;;;7.30;99.90;;;;;;5034776;28;20079;-88
2022/03/05 08:41:54;;;;;;;11.57;7.05;;;7.90;99.90;;;;;;5001877;28;20111;-88
2022/03/05 08:44:20;;;;;;;10.30;6.70;;;7.60;99.90;;;;;;5048104;28;20396;-82
2022/03/05 08:46:46;;;;;;;13.45;6.82;;;7.70;99.90;;;;;;5033545;28;20036;-87
2022/03/05 08:49:12;;;;;;;10.95;7.40;;;8.50;99.90;;;;;;5033837;28;20157;-85
2022/03/05 08:51:38;;;;;;;12.82;7.38;;;7.60;99.90;;;;;;5035046;28;20079;-87
2022/03/05 08:54:04;;;;;;;;;;;8.10;99.90;;;;;;5035852;28;20045;-86
2022/03/05 08:56:29;;;;;;;10.23;6.72;;;7.80;99.90;;;;;;5052093;28;19921;-86
2022/03/05 08:58:55;;;;;;;13.95;8.00;;;8.30;99.90;;;;;;5052067;28;20046;-86
2022/03/05 09:01:21;;;;;;;10.88;7.32;;;8.20;99.90;;;;;;5018640;28;20265;-86
2022/03/05 09:03:47;;;;;;;13.25;7.00;;;8.10;99.90;;;;;;5018710;28;20070;-86
2022/03/05 09:06:14;;;;;;;15.50;8.20;;;8.50;99.90;;;;;;5018767;28;20033;-87
2022/03/05 09:08:39;;;;;;;13.02;7.82;;;8.20;99.90;;;;;;5051670;28;20063;-87
2022/03/05 09:11:06;;;;;;;11.15;6.90;;;8.10;99.90;;;;;;5018788;28;20396;-86
2022/03/05 09:13:31;;;;;;;12.55;6.95;;;8.60;99.90;;;;;;5034525;28;20072;-86
2022/03/05 09:16:18;;;;;;;14.32;7.63;;;8.60;99.90;;;;;;5033899;28;20531;-85
2022/03/05 09:18:44;;;;;;;14.43;7.50;;;9.00;99.90;;;;;;5049622;28;20033;-84
2022/03/05 09:21:31;;;;;;;14.83;8.10;;;8.80;99.90;;;;;;5015164;28;20048;-92
2022/03/05 09:24:17;;;;;;;12.88;7.50;;;9.00;99.90;;;;;;5045964;28;20298;-91
2022/03/05 09:26:42;;;;;;;12.60;7.60;;;8.50;99.90;;;;;;5033503;28;20067;-85
2022/03/05 09:29:08;;;;;;;11.82;6.70;;;8.90;99.90;;;;;;5047386;28;20041;-89
2022/03/05 09:31:34;;;;;;;14.18;8.43;;;8.70;99.90;;;;;;5015729;28;20049;-90
2022/03/05 09:34:00;;;;;;;13.05;8.00;;;8.90;99.90;;;;;;4999335;28;20103;-88
2022/03/05 09:36:25;;;;;;;13.38;7.95;;;9.30;99.90;;;;;;5049582;28;20029;-85
2022/03/05 09:38:51;;;;;;;13.45;8.43;;;9.60;99.90;;;;;;5033029;28;20048;-86
2022/03/05 09:41:17;;;;;;;13.32;8.45;;;9.40;99.90;;;;;;5015901;28;20036;-83
2022/03/05 09:43:43;;;;;;;13.75;7.68;;;10.00;99.90;;;;;;5016479;28;20468;-84
2022/03/05 09:46:10;;;;;;;12.30;7.85;;;10.40;99.90;;;;;;5034112;28;20033;-84
2022/03/05 09:48:37;;;;;;;12.20;7.88;;;10.50;99.90;;;;;;5048830;28;20064;-83
2022/03/05 09:51:03;;;;;;;14.95;8.38;;;10.50;99.90;;;;;;5046921;28;20083;-84
2022/03/05 09:53:30;;;;;;;15.20;8.50;;;10.70;99.80;;;;;;5049077;28;20489;-88
2022/03/05 09:55:56;;;;;;;12.32;8.02;;;10.30;99.90;;;;;;5033753;28;20116;-86
2022/03/05 09:58:22;;;;;;;13.00;7.90;;;10.50;99.90;;;;;;5033074;28;20167;-85
2022/03/05 10:00:48;;;;;;;13.98;7.78;;;11.00;99.90;;;;;;5047002;28;20539;-88
2022/03/05 10:03:15;;;;;;;13.70;7.82;;;11.50;98.00;;;;;;5018484;28;20037;-85
2022/03/05 10:05:41;;;;;;;14.52;8.25;;;11.20;98.90;;;;;;5018418;28;20186;-83
2022/03/05 10:08:20;;;;;;;13.07;8.32;;;10.90;98.40;;;;;;5052933;28;20037;-86
2022/03/05 10:10:53;;;;;;;13.23;8.57;;;11.30;97.50;;;;;;5036158;28;20492;-86
2022/03/05 10:13:22;;;;;;;12.38;7.72;;;11.20;97.70;;;;;;5036781;28;20472;-87
2022/03/05 10:15:49;;;;;;;12.85;8.40;;;11.60;96.80;;;;;;5053224;28;20480;-86
2022/03/05 10:18:15;;;;;;;15.60;8.48;;;11.70;95.80;;;;;;5050943;28;20036;-86
2022/03/05 10:20:50;;;;;;;12.82;7.97;;;11.70;95.60;;;;;;5036017;28;20037;-86
2022/03/05 10:23:17;;;;;;;14.07;8.20;;;11.60;96.40;;;;;;5036327;28;20040;-87
2022/03/05 10:25:48;;;;;;;14.18;8.27;;;11.60;96.70;;;;;;5020129;28;20427;-85
2022/03/05 10:28:17;;;;;;;13.40;8.68;;;11.30;96.70;;;;;;5051323;28;20048;-85
2022/03/05 10:30:46;;;;;;;14.90;8.80;;;11.40;95.80;;;;;;5052842;28;20041;-84
2022/03/05 10:33:25;;;;;;;13.70;8.20;;;11.50;96.00;;;;;;5052825;28;20037;-85
2022/03/05 10:35:51;;;;;;;14.48;8.57;;;11.80;95.10;;;;;;5052454;28;20044;-82
2022/03/05 10:38:17;;;;;;;12.65;8.30;;;12.20;95.10;;;;;;5034947;28;20037;-82
2022/03/05 10:40:43;;;;;;;15.05;8.35;;;12.10;93.80;;;;;;5050088;28;20033;-84
2022/03/05 10:43:09;;;;;;;14.30;8.80;;;12.40;94.60;;;;;;5034830;28;20049;-83
2022/03/05 10:45:55;;;;;;;12.80;7.90;;;12.40;94.00;;;;;;5034736;28;20033;-89
2022/03/05 10:48:36;;;;;;;16.73;8.52;;;12.80;92.60;;;;;;5052541;28;20053;-91
2022/03/05 10:51:14;;;;;;;15.65;8.98;;;13.00;91.00;;;;;;5053555;28;20045;-90
2022/03/05 10:53:44;;;;;;;15.32;8.32;;;12.30;93.00;;;;;;5053573;28;20041;-91
2022/03/05 10:56:39;;;;;;;15.43;9.20;;;12.40;93.60;;;;;;5053491;28;20120;-91
2022/03/05 10:59:13;;;;;;;15.43;8.82;;;12.60;93.40;;;;;;5036986;28;20045;-92
2022/03/05 11:01:42;;;;;;;15.77;9.20;;;12.80;92.00;;;;;;5027737;28;20460;-91
2022/03/05 11:04:10;;;;;;;14.50;9.07;;;12.50;92.60;;;;;;5020824;28;20055;-92
2022/03/05 11:06:43;;;;;;;17.88;8.93;;;12.40;91.50;;;;;;5055350;28;20040;-92
2022/03/05 11:09:11;;;;;;;16.40;9.93;;;12.50;92.00;;;;;;5037896;28;20068;-86
2022/03/05 11:11:39;;;;;;;16.17;9.13;;;12.70;90.90;;;;;;5051201;28;20086;-86
2022/03/05 11:14:14;;;;;;;13.30;8.43;;;12.20;92.80;;;;;;5050365;28;20045;-87
2022/03/05 11:16:41;;;;;;;13.75;8.52;;;12.40;92.80;;;;;;5051032;28;20068;-89
2022/03/05 11:19:07;;;;;;;15.27;9.02;;;12.10;93.30;;;;;;5036567;28;20036;-96
2022/03/05 11:21:38;;;;;;;15.02;9.82;;;11.90;93.40;;;;;;5152040;22;20041;-96
2022/03/05 11:24:06;;;;;;;14.85;8.82;;;12.10;93.50;;;;;;5020627;28;20250;-80
2022/03/05 11:26:33;;;;;;;15.38;9.05;;;12.60;92.70;;;;;;5033197;28;20047;-81
2022/03/05 11:28:58;;;;;;;15.27;9.30;;;13.00;91.70;;;;;;5034578;28;20036;-81
2022/03/05 11:31:33;;;;;;;14.90;9.60;;;12.70;91.40;;;;;;5032056;28;20041;-82
2022/03/05 11:34:14;;;;;;;15.52;9.25;;;12.40;92.10;;;;;;5034345;28;20515;-81
2022/03/05 11:36:42;;;;;;;14.50;8.82;;;12.50;91.90;;;;;;5050464;28;20138;-80
2022/03/05 11:39:09;;;;;;;14.32;8.50;;;13.50;90.40;;;;;;5017723;28;20049;-82
2022/03/05 11:41:47;;;;;;;16.83;8.77;;;12.90;90.70;;;;;;5034290;28;20037;-83
2022/03/05 11:44:14;;;;;;;15.20;8.73;;;12.80;92.00;;;;;;5049169;28;20041;-86
2022/03/05 11:46:40;;;;;;;20.30;8.73;;;13.10;90.90;;;;;;5050519;28;20045;-83
2022/03/05 11:49:07;;;;;;;13.88;8.68;;;13.70;88.60;;;;;;5034419;28;20033;-81
2022/03/05 11:51:34;;;;;;;14.02;8.57;;;13.40;90.10;;;;;;5033728;28;20036;-82
2022/03/05 11:54:05;;;;;;;14.82;8.77;;;13.30;88.30;;;;;;5050468;28;20187;-85
2022/03/05 11:56:31;;;;;;;14.32;8.98;;;13.70;88.30;;;;;;5033203;28;20041;-83
2022/03/05 11:58:57;;;;;;;13.25;8.35;;;13.70;88.20;;;;;;5033946;28;20045;-83
2022/03/05 12:01:39;;;;;;;15.45;9.20;;;13.50;87.80;;;;;;4999807;28;20099;-82
2022/03/05 12:04:25;;;;;;;13.73;8.73;;;13.60;87.00;;;;;;5033800;28;20041;-82
2022/03/05 12:07:02;;;;;;;15.20;9.00;;;13.30;89.00;;;;;;5033786;28;20032;-82
2022/03/05 12:09:34;;;;;;;16.02;9.02;;;13.40;90.30;;;;;;5033305;28;20075;-82
2022/03/05 12:12:00;;;;;;;14.07;8.63;;;13.50;88.90;;;;;;5034060;28;20041;-82
2022/03/05 12:15:04;;;;;;;13.95;8.95;;;13.70;88.90;;;;;;5033352;28;20116;-82
2022/03/05 12:17:45;;;;;;;14.20;9.15;;;14.30;84.10;;;;;;5031687;28;20076;-82
2022/03/05 12:20:14;;;;;;;16.48;8.90;;;14.70;82.90;;;;;;5033626;28;20071;-82
2022/03/05 12:23:07;;;;;;;13.00;8.60;;;14.80;82.70;;;;;;5032821;28;20056;-82
2022/03/05 12:25:42;;;;;;;14.63;9.77;;;15.10;81.90;;;;;;5047636;28;20128;-83
2022/03/05 12:28:16;;;;;;;14.40;9.57;;;14.20;80.70;;;;;;5047780;28;20037;-83
2022/03/05 12:30:43;;;;;;;15.07;8.90;;;15.10;80.70;;;;;;5033411;28;20492;-82
2022/03/05 12:33:11;;;;;;;12.57;8.00;;;15.40;78.20;;;;;;5017093;28;20036;-82
2022/03/05 12:35:38;;;;;;;13.88;8.63;;;15.00;82.10;;;;;;5049667;28;20124;-82
2022/03/05 12:38:05;;;;;;;14.55;9.25;;;14.70;78.30;;;;;;5033088;28;20041;-82
2022/03/05 12:40:32;;;;;;;16.35;9.55;;;14.40;80.60;;;;;;5049289;28;20159;-83
2022/03/05 12:42:58;;;;;;;14.05;9.32;;;14.40;82.40;;;;;;5033312;28;20048;-83